createdAt,value
2022-10-04T00:00:15.412Z,89.66
2022-10-04T00:01:15.453Z,89.97
2022-10-04T00:02:15.494Z,89.56
2022-10-04T00:03:15.447Z,89.66
2022-10-04T00:04:15.343Z,90.17
2022-10-04T00:05:15.346Z,90.07
2022-10-04T00:06:15.330Z,90.07
2022-10-04T00:07:15.316Z,90.11
2022-10-04T00:08:15.276Z,90.22
2022-10-04T00:09:15.338Z,90.22
2022-10-04T00:10:15.262Z,90.11
2022-10-04T00:11:15.265Z,90.11
2022-10-04T00:12:15.210Z,90.73
2022-10-04T00:13:16.967Z,90.62
2022-10-04T00:14:15.180Z,90.73
2022-10-04T00:15:15.150Z,90.52
2022-10-04T00:16:15.188Z,90.32
2022-10-04T00:17:15.113Z,90.52
2022-10-04T00:18:15.113Z,89.90
2022-10-04T00:19:15.100Z,89.81
2022-10-04T00:20:15.094Z,89.70
2022-10-04T00:21:15.108Z,89.70
2022-10-04T00:22:15.035Z,90.01
2022-10-04T00:23:15.124Z,89.70
2022-10-04T00:24:15.006Z,89.60
2022-10-04T00:25:15.005Z,89.36
2022-10-04T00:26:14.991Z,89.09
2022-10-04T00:27:14.961Z,89.39
2022-10-04T00:28:14.997Z,89.29
2022-10-04T00:29:14.924Z,89.29
2022-10-04T00:30:14.912Z,89.09
2022-10-04T00:31:14.972Z,89.36
2022-10-04T00:32:14.869Z,89.09
2022-10-04T00:33:14.863Z,88.98
2022-10-04T00:34:14.840Z,89.09
2022-10-04T00:35:14.823Z,89.29
2022-10-04T00:36:14.850Z,89.29
2022-10-04T00:37:14.796Z,89.09
2022-10-04T00:38:14.792Z,88.78
2022-10-04T00:39:14.751Z,89.09
2022-10-04T00:40:14.755Z,88.92
2022-10-04T00:41:14.753Z,88.78
2022-10-04T00:42:14.784Z,88.88
2022-10-04T00:43:14.719Z,88.78
2022-10-04T00:44:14.666Z,88.68
2022-10-04T00:45:14.672Z,89.19
2022-10-04T00:46:14.675Z,89.39
2022-10-04T00:47:14.653Z,89.39
2022-10-04T00:48:14.618Z,89.43
2022-10-04T00:49:14.588Z,89.19
2022-10-04T00:50:14.560Z,89.81
2022-10-04T00:51:15.548Z,89.50
2022-10-04T00:52:14.565Z,89.81
2022-10-04T00:53:14.577Z,90.05
2022-10-04T00:54:14.522Z,89.70
2022-10-04T00:55:14.494Z,89.19
2022-10-04T00:56:14.471Z,89.84
2022-10-04T00:57:14.494Z,89.60
2022-10-04T00:58:14.452Z,89.90
2022-10-04T00:59:14.407Z,89.50
2022-10-04T01:00:14.435Z,89.70
2022-10-04T01:01:14.479Z,90.22
2022-10-04T01:02:14.561Z,90.22
2022-10-04T01:03:14.388Z,90.22
2022-10-04T01:04:14.385Z,90.22
2022-10-04T01:05:14.334Z,90.22
2022-10-04T01:06:14.317Z,89.81
2022-10-04T01:07:14.279Z,89.60
2022-10-04T01:08:14.260Z,89.29
2022-10-04T01:09:14.244Z,89.29
2022-10-04T01:10:14.226Z,89.25
2022-10-04T01:11:14.249Z,88.74
2022-10-04T01:12:14.184Z,88.84
2022-10-04T01:13:14.326Z,89.15
2022-10-04T01:14:14.152Z,89.04
2022-10-04T01:15:14.175Z,89.04
2022-10-04T01:16:14.233Z,88.74
2022-10-04T01:17:14.116Z,89.15
2022-10-04T01:18:14.080Z,88.84
2022-10-04T01:19:14.085Z,88.84
2022-10-04T01:20:14.054Z,89.36
2022-10-04T01:21:14.066Z,88.94
2022-10-04T01:22:14.022Z,88.84
2022-10-04T01:23:14.061Z,88.74
2022-10-04T01:24:14.009Z,88.84
2022-10-04T01:25:13.976Z,89.04
2022-10-04T01:26:14.097Z,88.74
2022-10-04T01:27:13.934Z,89.36
2022-10-04T01:28:13.986Z,89.45
2022-10-04T01:29:13.916Z,88.90
2022-10-04T01:30:13.881Z,88.94
2022-10-04T01:31:13.996Z,89.04
2022-10-04T01:32:13.859Z,89.36
2022-10-04T01:33:14.626Z,88.74
2022-10-04T01:34:13.823Z,88.84
2022-10-04T01:35:13.801Z,88.84
2022-10-04T01:36:13.823Z,88.23
2022-10-04T01:37:13.863Z,87.92
2022-10-04T01:38:13.750Z,88.23
2022-10-04T01:39:13.744Z,87.71
2022-10-04T01:40:13.712Z,88.18
2022-10-04T01:41:13.724Z,88.23
2022-10-04T01:42:13.675Z,88.43
2022-10-04T01:43:13.719Z,89.04
2022-10-04T01:44:13.651Z,88.84
2022-10-04T01:45:13.637Z,88.64
2022-10-04T01:46:13.736Z,88.94
2022-10-04T01:47:13.604Z,88.68
2022-10-04T01:48:13.666Z,89.15
2022-10-04T01:49:13.620Z,89.04
2022-10-04T01:50:15.838Z,89.15
2022-10-04T01:51:14.572Z,89.36
2022-10-04T01:52:13.522Z,88.88
2022-10-04T01:53:13.585Z,89.04
2022-10-04T01:54:13.485Z,88.98
2022-10-04T01:55:13.493Z,88.64
2022-10-04T01:56:13.499Z,89.04
2022-10-04T01:57:13.419Z,88.84
2022-10-04T01:58:13.394Z,88.74
2022-10-04T01:59:13.476Z,88.23
2022-10-04T02:00:13.384Z,87.67
2022-10-04T02:01:13.500Z,87.82
2022-10-04T02:02:13.348Z,88.23
2022-10-04T02:03:13.401Z,87.92
2022-10-04T02:04:13.377Z,87.92
2022-10-04T02:05:13.289Z,88.12
2022-10-04T02:06:13.349Z,88.23
2022-10-04T02:07:13.238Z,89.45
2022-10-04T02:08:13.237Z,89.15
2022-10-04T02:09:13.221Z,89.04
2022-10-04T02:10:13.307Z,89.04
2022-10-04T02:11:13.211Z,89.45
2022-10-04T02:12:13.189Z,89.04
2022-10-04T02:13:13.217Z,88.94
2022-10-04T02:14:13.143Z,88.64
2022-10-04T02:15:13.107Z,88.74
2022-10-04T02:16:13.176Z,89.15
2022-10-04T02:17:13.072Z,88.59
2022-10-04T02:18:13.048Z,88.43
2022-10-04T02:19:13.042Z,87.77
2022-10-04T02:20:13.076Z,87.67
2022-10-04T02:21:13.080Z,88.18
2022-10-04T02:22:12.988Z,87.92
2022-10-04T02:23:13.025Z,87.37
2022-10-04T02:24:12.996Z,87.16
2022-10-04T02:25:12.958Z,86.85
2022-10-04T02:26:12.988Z,86.85
2022-10-04T02:27:12.933Z,86.65
2022-10-04T02:28:12.956Z,86.75
2022-10-04T02:29:12.908Z,86.75
2022-10-04T02:30:12.844Z,86.75
2022-10-04T02:31:12.938Z,87.37
2022-10-04T02:32:12.840Z,86.75
2022-10-04T02:33:13.849Z,86.85
2022-10-04T02:34:12.809Z,86.75
2022-10-04T02:35:12.805Z,86.75
2022-10-04T02:36:12.830Z,86.75
2022-10-04T02:37:12.747Z,87.06
2022-10-04T02:38:12.725Z,86.65
2022-10-04T02:39:12.731Z,86.75
2022-10-04T02:40:12.716Z,86.55
2022-10-04T02:41:12.763Z,86.75
2022-10-04T02:42:12.667Z,86.55
2022-10-04T02:43:12.666Z,86.55
2022-10-04T02:44:12.651Z,86.65
2022-10-04T02:45:12.618Z,86.65
2022-10-04T02:46:12.666Z,86.55
2022-10-04T02:47:12.579Z,86.85
2022-10-04T02:48:12.554Z,86.75
2022-10-04T02:49:12.551Z,86.81
2022-10-04T02:50:12.518Z,87.16
2022-10-04T02:51:12.538Z,87.16
2022-10-04T02:52:12.517Z,87.47
2022-10-04T02:53:12.481Z,87.57
2022-10-04T02:54:12.461Z,88.02
2022-10-04T02:55:12.451Z,87.88
2022-10-04T02:56:12.456Z,88.18
2022-10-04T02:57:12.429Z,87.67
2022-10-04T02:58:12.380Z,87.92
2022-10-04T02:59:12.374Z,87.57
2022-10-04T03:00:12.375Z,88.08
2022-10-04T03:01:12.408Z,87.67
2022-10-04T03:02:12.345Z,88.18
2022-10-04T03:03:12.329Z,88.39
2022-10-04T03:04:12.304Z,87.77
2022-10-04T03:05:12.326Z,87.77
2022-10-04T03:06:12.273Z,87.77
2022-10-04T03:07:12.234Z,87.88
2022-10-04T03:08:12.229Z,87.88
2022-10-04T03:09:12.198Z,87.67
2022-10-04T03:10:12.205Z,87.47
2022-10-04T03:11:12.198Z,87.37
2022-10-04T03:12:12.151Z,86.55
2022-10-04T03:13:12.252Z,87.26
2022-10-04T03:14:12.121Z,86.85
2022-10-04T03:15:12.112Z,86.65
2022-10-04T03:16:12.301Z,86.91
2022-10-04T03:17:12.073Z,86.20
2022-10-04T03:18:12.084Z,86.40
2022-10-04T03:19:12.033Z,86.91
2022-10-04T03:20:12.010Z,86.51
2022-10-04T03:21:12.041Z,86.30
2022-10-04T03:22:11.981Z,86.46
2022-10-04T03:23:12.033Z,86.61
2022-10-04T03:24:11.961Z,86.20
2022-10-04T03:25:11.951Z,86.81
2022-10-04T03:26:11.949Z,86.40
2022-10-04T03:27:12.056Z,86.10
2022-10-04T03:28:11.910Z,85.64
2022-10-04T03:29:11.865Z,85.64
2022-10-04T03:30:11.834Z,85.75
2022-10-04T03:31:11.909Z,85.75
2022-10-04T03:32:11.802Z,85.24
2022-10-04T03:33:11.827Z,86.88
2022-10-04T03:34:11.775Z,86.67
2022-10-04T03:35:11.781Z,86.67
2022-10-04T03:36:11.766Z,86.57
2022-10-04T03:37:11.729Z,86.46
2022-10-04T03:38:11.729Z,86.88
2022-10-04T03:39:11.686Z,86.46
2022-10-04T03:40:11.662Z,86.57
2022-10-04T03:41:11.681Z,86.57
2022-10-04T03:42:11.637Z,85.96
2022-10-04T03:43:11.718Z,86.67
2022-10-04T03:44:11.611Z,86.67
2022-10-04T03:45:11.601Z,86.67
2022-10-04T03:46:11.666Z,86.57
2022-10-04T03:47:11.536Z,85.99
2022-10-04T03:48:11.534Z,85.96
2022-10-04T03:49:11.591Z,85.64
2022-10-04T03:50:11.503Z,85.44
2022-10-04T03:51:11.535Z,86.16
2022-10-04T03:52:11.459Z,86.26
2022-10-04T03:53:11.500Z,85.64
2022-10-04T03:54:11.416Z,85.44
2022-10-04T03:55:11.431Z,86.77
2022-10-04T03:56:11.433Z,87.38
2022-10-04T03:57:11.389Z,86.46
2022-10-04T03:58:11.359Z,86.71
2022-10-04T03:59:11.348Z,86.46
2022-10-04T04:00:11.369Z,86.77
2022-10-04T04:01:11.401Z,86.81
2022-10-04T04:02:12.330Z,86.98
2022-10-04T04:03:11.342Z,87.53
2022-10-04T04:04:11.291Z,87.53
2022-10-04T04:05:11.253Z,87.43
2022-10-04T04:06:11.260Z,86.88
2022-10-04T04:07:11.205Z,87.12
2022-10-04T04:08:11.213Z,87.32
2022-10-04T04:09:11.182Z,87.32
2022-10-04T04:10:14.556Z,87.22
2022-10-04T04:11:13.189Z,87.43
2022-10-04T04:12:11.133Z,86.81
2022-10-04T04:13:11.135Z,86.61
2022-10-04T04:14:11.164Z,85.17
2022-10-04T04:15:11.094Z,85.34
2022-10-04T04:16:11.158Z,85.14
2022-10-04T04:17:11.028Z,84.77
2022-10-04T04:18:11.022Z,85.44
2022-10-04T04:19:11.052Z,85.34
2022-10-04T04:20:10.993Z,85.34
2022-10-04T04:21:11.008Z,85.40
2022-10-04T04:22:11.036Z,84.79
2022-10-04T04:23:11.156Z,85.30
2022-10-04T04:24:10.936Z,85.24
2022-10-04T04:25:10.897Z,85.64
2022-10-04T04:26:10.938Z,86.73
2022-10-04T04:27:10.868Z,86.46
2022-10-04T04:28:10.904Z,86.57
2022-10-04T04:29:10.841Z,85.71
2022-10-04T04:30:10.804Z,84.31
2022-10-04T04:31:10.831Z,85.44
2022-10-04T04:32:10.856Z,85.14
2022-10-04T04:33:10.803Z,85.14
2022-10-04T04:34:10.802Z,83.56
2022-10-04T04:35:10.724Z,83.66
2022-10-04T04:36:10.741Z,83.56
2022-10-04T04:37:10.732Z,83.66
2022-10-04T04:38:10.690Z,83.25
2022-10-04T04:39:10.653Z,83.46
2022-10-04T04:40:10.649Z,83.56
2022-10-04T04:41:10.685Z,83.36
2022-10-04T04:42:10.631Z,83.25
2022-10-04T04:43:10.686Z,83.05
2022-10-04T04:44:10.748Z,83.62
2022-10-04T04:45:10.577Z,83.25
2022-10-04T04:46:26.784Z,83.36
2022-10-04T04:47:16.303Z,83.66
2022-10-04T04:48:11.516Z,83.52
2022-10-04T04:49:10.512Z,83.62
2022-10-04T04:50:10.480Z,83.93
2022-10-04T04:51:10.513Z,83.62
2022-10-04T04:52:10.431Z,83.62
2022-10-04T04:53:10.428Z,83.73
2022-10-04T04:54:10.398Z,84.03
2022-10-04T04:55:10.519Z,84.03
2022-10-04T04:56:12.696Z,84.55
2022-10-04T04:57:10.358Z,84.44
2022-10-04T04:58:10.334Z,84.44
2022-10-04T04:59:10.331Z,84.69
2022-10-04T05:00:10.301Z,84.38
2022-10-04T05:01:10.393Z,85.14
2022-10-04T05:02:10.334Z,85.44
2022-10-04T05:03:10.314Z,85.55
2022-10-04T05:04:10.243Z,85.75
2022-10-04T05:05:10.210Z,86.51
2022-10-04T05:06:10.396Z,86.71
2022-10-04T05:07:10.180Z,86.81
2022-10-04T05:08:11.165Z,86.91
2022-10-04T05:09:10.179Z,87.43
2022-10-04T05:10:10.138Z,87.32
2022-10-04T05:11:10.145Z,87.32
2022-10-04T05:12:10.121Z,87.53
2022-10-04T05:13:10.174Z,87.43
2022-10-04T05:14:10.069Z,87.53
2022-10-04T05:15:11.101Z,87.53
2022-10-04T05:16:10.300Z,87.32
2022-10-04T05:17:10.050Z,88.10
2022-10-04T05:18:09.999Z,87.94
2022-10-04T05:19:09.994Z,88.10
2022-10-04T05:20:09.970Z,88.20
2022-10-04T05:21:09.972Z,88.86
2022-10-04T05:22:09.939Z,88.62
2022-10-04T05:23:09.942Z,88.76
2022-10-04T05:24:09.881Z,88.71
2022-10-04T05:25:09.874Z,88.71
2022-10-04T05:26:09.847Z,88.20
2022-10-04T05:27:09.872Z,88.76
2022-10-04T05:28:09.952Z,88.86
2022-10-04T05:29:09.808Z,89.23
2022-10-04T05:30:09.780Z,88.96
2022-10-04T05:31:09.821Z,88.86
2022-10-04T05:32:09.800Z,89.17
2022-10-04T05:33:09.834Z,89.37
2022-10-04T05:34:09.705Z,88.76
2022-10-04T05:35:09.704Z,89.58
2022-10-04T05:36:09.674Z,89.47
2022-10-04T05:37:10.714Z,89.58
2022-10-04T05:38:09.682Z,88.86
2022-10-04T05:39:09.697Z,89.17
2022-10-04T05:40:09.624Z,89.33
2022-10-04T05:41:09.621Z,89.03
2022-10-04T05:42:09.606Z,89.12
2022-10-04T05:43:09.588Z,88.62
2022-10-04T05:44:09.564Z,88.71
2022-10-04T05:45:09.539Z,88.62
2022-10-04T05:46:09.652Z,88.92
2022-10-04T05:47:09.531Z,88.62
2022-10-04T05:48:09.484Z,88.92
2022-10-04T05:49:09.476Z,88.62
2022-10-04T05:50:09.515Z,88.92
2022-10-04T05:51:09.479Z,88.76
2022-10-04T05:52:09.477Z,89.03
2022-10-04T05:53:09.463Z,88.92
2022-10-04T05:54:09.371Z,88.92
2022-10-04T05:55:09.375Z,88.62
2022-10-04T05:56:09.352Z,89.12
2022-10-04T05:57:09.448Z,88.92
2022-10-04T05:58:09.296Z,88.57
2022-10-04T05:59:09.304Z,88.86
2022-10-04T06:00:09.285Z,89.12
2022-10-04T06:01:09.370Z,89.12
2022-10-04T06:02:09.350Z,89.12
2022-10-04T06:03:09.261Z,88.92
2022-10-04T06:04:09.217Z,88.62
2022-10-04T06:05:09.229Z,88.82
2022-10-04T06:06:09.168Z,88.88
2022-10-04T06:07:09.175Z,89.18
2022-10-04T06:08:09.131Z,88.71
2022-10-04T06:09:09.130Z,88.82
2022-10-04T06:10:09.129Z,88.71
2022-10-04T06:11:09.077Z,89.12
2022-10-04T06:12:09.174Z,88.71
2022-10-04T06:13:09.076Z,88.62
2022-10-04T06:14:09.019Z,89.12
2022-10-04T06:15:09.022Z,89.23
2022-10-04T06:16:09.115Z,89.03
2022-10-04T06:17:09.027Z,89.12
2022-10-04T06:18:08.962Z,88.98
2022-10-04T06:19:09.034Z,88.78
2022-10-04T06:20:08.937Z,88.92
2022-10-04T06:21:08.914Z,88.57
2022-10-04T06:22:08.941Z,88.06
2022-10-04T06:23:08.923Z,88.26
2022-10-04T06:24:08.875Z,89.29
2022-10-04T06:25:08.839Z,88.37
2022-10-04T06:26:08.846Z,87.71
2022-10-04T06:27:08.869Z,87.61
2022-10-04T06:28:08.828Z,87.41
2022-10-04T06:29:08.814Z,87.41
2022-10-04T06:30:08.769Z,86.90
2022-10-04T06:31:08.765Z,87.20
2022-10-04T06:32:08.767Z,87.51
2022-10-04T06:33:08.823Z,87.16
2022-10-04T06:34:08.785Z,87.26
2022-10-04T06:35:08.713Z,86.96
2022-10-04T06:36:08.671Z,86.76
2022-10-04T06:37:08.690Z,86.71
2022-10-04T06:38:08.617Z,86.44
2022-10-04T06:39:08.599Z,86.35
2022-10-04T06:40:08.678Z,86.91
2022-10-04T06:41:08.585Z,86.44
2022-10-04T06:42:08.597Z,86.24
2022-10-04T06:43:08.620Z,86.10
2022-10-04T06:44:08.547Z,86.30
2022-10-04T06:45:09.465Z,86.30
2022-10-04T06:46:08.579Z,86.00
2022-10-04T06:47:08.599Z,86.36
2022-10-04T06:48:08.443Z,85.41
2022-10-04T06:49:08.419Z,84.80
2022-10-04T06:50:08.406Z,83.87
2022-10-04T06:51:08.398Z,83.90
2022-10-04T06:52:08.426Z,82.80
2022-10-04T06:53:08.411Z,81.65
2022-10-04T06:54:08.399Z,80.45
2022-10-04T06:55:08.330Z,79.13
2022-10-04T06:56:08.373Z,78.21
2022-10-04T06:57:08.321Z,77.56
2022-10-04T06:58:08.310Z,76.75
2022-10-04T06:59:08.257Z,76.75
2022-10-04T07:00:08.249Z,76.65
2022-10-04T07:01:08.339Z,77.09
2022-10-04T07:02:08.306Z,77.29
2022-10-04T07:03:08.240Z,77.81
2022-10-04T07:04:08.216Z,78.11
2022-10-04T07:05:09.343Z,78.21
2022-10-04T07:06:09.190Z,78.28
2022-10-04T07:07:08.229Z,77.06
2022-10-04T07:08:08.191Z,76.86
2022-10-04T07:09:08.130Z,77.16
2022-10-04T07:10:08.072Z,76.55
2022-10-04T07:11:12.142Z,76.95
2022-10-04T07:12:09.080Z,76.72
2022-10-04T07:13:08.061Z,76.92
2022-10-04T07:14:08.018Z,75.67
2022-10-04T07:15:08.053Z,75.52
2022-10-04T07:16:08.036Z,75.73
2022-10-04T07:17:07.984Z,74.92
2022-10-04T07:18:07.985Z,75.22
2022-10-04T07:19:08.921Z,74.68
2022-10-04T07:20:07.905Z,74.82
2022-10-04T07:21:07.879Z,74.68
2022-10-04T07:22:07.899Z,74.88
2022-10-04T07:23:07.857Z,75.09
2022-10-04T07:24:07.845Z,74.85
2022-10-04T07:25:07.826Z,74.30
2022-10-04T07:26:07.860Z,74.07
2022-10-04T07:27:07.853Z,73.59
2022-10-04T07:28:07.829Z,72.68
2022-10-04T07:29:07.812Z,70.65
2022-10-04T07:30:07.736Z,70.59
2022-10-04T07:31:07.759Z,71.53
2022-10-04T07:32:07.744Z,71.16
2022-10-04T07:33:07.702Z,72.38
2022-10-04T07:34:07.668Z,72.92
2022-10-04T07:35:07.656Z,73.33
2022-10-04T07:36:07.624Z,72.96
2022-10-04T07:37:07.642Z,74.31
2022-10-04T07:38:07.600Z,72.48
2022-10-04T07:39:07.691Z,70.52
2022-10-04T07:40:07.595Z,69.04
2022-10-04T07:41:07.575Z,68.00
2022-10-04T07:42:07.568Z,67.46
2022-10-04T07:43:07.614Z,66.15
2022-10-04T07:44:07.512Z,64.90
2022-10-04T07:45:07.483Z,64.84
2022-10-04T07:46:07.538Z,65.32
2022-10-04T07:47:07.456Z,62.37
2022-10-04T07:48:07.411Z,62.77
2022-10-04T07:49:07.413Z,62.16
2022-10-04T07:50:07.411Z,62.77
2022-10-04T07:51:07.476Z,62.60
2022-10-04T07:52:07.363Z,61.90
2022-10-04T07:53:09.503Z,60.69
2022-10-04T07:54:08.368Z,60.39
2022-10-04T07:55:07.303Z,61.43
2022-10-04T07:56:07.366Z,61.53
2022-10-04T07:57:07.286Z,61.93
2022-10-04T07:58:07.302Z,62.29
2022-10-04T07:59:07.265Z,62.40
2022-10-04T08:00:07.239Z,63.64
2022-10-04T08:01:07.233Z,61.93
2022-10-04T08:02:07.450Z,60.51
2022-10-04T08:03:07.290Z,58.14
2022-10-04T08:04:07.233Z,56.91
2022-10-04T08:05:07.172Z,56.96
2022-10-04T08:06:07.158Z,56.45
2022-10-04T08:07:07.105Z,55.63
2022-10-04T08:08:07.145Z,55.30
2022-10-04T08:09:07.127Z,53.97
2022-10-04T08:10:07.141Z,53.34
2022-10-04T08:11:07.186Z,52.87
2022-10-04T08:12:07.108Z,53.07
2022-10-04T08:13:08.047Z,54.17
2022-10-04T08:14:07.003Z,53.37
2022-10-04T08:15:07.146Z,52.97
2022-10-04T08:16:07.283Z,52.64
2022-10-04T08:17:07.777Z,52.07
2022-10-04T08:18:06.941Z,53.80
2022-10-04T08:19:06.922Z,53.50
2022-10-04T08:20:06.909Z,54.17
2022-10-04T08:21:06.882Z,53.74
2022-10-04T08:22:06.876Z,52.34
2022-10-04T08:23:07.928Z,52.87
2022-10-04T08:24:06.950Z,53.37
2022-10-04T08:25:06.795Z,53.05
2022-10-04T08:26:06.829Z,53.00
2022-10-04T08:27:06.800Z,54.10
2022-10-04T08:28:06.815Z,53.42
2022-10-04T08:29:06.750Z,54.97
2022-10-04T08:30:06.716Z,55.91
2022-10-04T08:31:06.761Z,55.85
2022-10-04T08:32:06.780Z,55.22
2022-10-04T08:33:06.748Z,55.43
2022-10-04T08:34:06.673Z,53.52
2022-10-04T08:35:06.661Z,53.75
2022-10-04T08:36:06.646Z,53.19
2022-10-04T08:37:06.646Z,53.17
2022-10-04T08:38:06.601Z,51.84
2022-10-04T08:39:06.582Z,52.64
2022-10-04T08:40:10.770Z,51.89
2022-10-04T08:41:08.574Z,51.29
2022-10-04T08:42:06.585Z,51.47
2022-10-04T08:43:06.544Z,49.37
2022-10-04T08:44:06.494Z,50.92
2022-10-04T08:45:06.500Z,50.82
2022-10-04T08:46:06.539Z,51.09
2022-10-04T08:47:06.504Z,51.02
2022-10-04T08:48:06.435Z,51.34
2022-10-04T08:49:06.420Z,51.42
2022-10-04T08:50:06.417Z,50.42
2022-10-04T08:51:06.399Z,50.57
2022-10-04T08:52:06.415Z,49.15
2022-10-04T08:53:10.672Z,50.09
2022-10-04T08:54:07.329Z,51.22
2022-10-04T08:55:06.362Z,51.12
2022-10-04T08:56:06.314Z,51.22
2022-10-04T08:57:06.349Z,51.84
2022-10-04T08:58:06.280Z,51.84
2022-10-04T08:59:06.294Z,51.32
2022-10-04T09:00:06.243Z,50.59
2022-10-04T09:01:06.265Z,50.29
2022-10-04T09:02:06.223Z,49.52
2022-10-04T09:03:06.308Z,48.94
2022-10-04T09:04:06.181Z,48.67
2022-10-04T09:05:06.153Z,50.42
2022-10-04T09:06:06.145Z,50.49
2022-10-04T09:07:06.167Z,48.97
2022-10-04T09:08:06.154Z,48.85
2022-10-04T09:09:06.113Z,48.55
2022-10-04T09:10:06.127Z,48.48
2022-10-04T09:11:06.141Z,47.60
2022-10-04T09:12:06.097Z,47.60
2022-10-04T09:13:06.053Z,46.34
2022-10-04T09:14:06.039Z,46.88
2022-10-04T09:15:06.005Z,46.96
2022-10-04T09:16:06.055Z,45.22
2022-10-04T09:17:06.005Z,46.09
2022-10-04T09:18:05.964Z,44.70
2022-10-04T09:19:05.967Z,45.37
2022-10-04T09:20:33.380Z,43.57
2022-10-04T09:21:07.930Z,43.92
2022-10-04T09:22:05.935Z,42.58
2022-10-04T09:23:06.614Z,41.42
2022-10-04T09:24:06.876Z,43.35
2022-10-04T09:25:05.858Z,43.27
2022-10-04T09:26:05.841Z,43.49
2022-10-04T09:27:05.875Z,44.72
2022-10-04T09:28:05.871Z,44.60
2022-10-04T09:29:05.805Z,44.53
2022-10-04T09:30:05.818Z,44.48
2022-10-04T09:31:05.812Z,43.86
2022-10-04T09:32:05.793Z,43.57
2022-10-04T09:33:05.785Z,43.66
2022-10-04T09:34:05.718Z,43.98
2022-10-04T09:35:05.714Z,43.59
2022-10-04T09:36:05.715Z,43.59
2022-10-04T09:37:05.709Z,43.79
2022-10-04T09:38:05.706Z,43.46
2022-10-04T09:39:28.882Z,43.44
2022-10-04T09:40:07.650Z,43.64
2022-10-04T09:41:06.668Z,43.70
2022-10-04T09:42:05.633Z,42.19
2022-10-04T09:43:05.595Z,42.51
2022-10-04T09:44:05.585Z,43.05
2022-10-04T09:45:05.555Z,44.02
2022-10-04T09:46:05.647Z,45.81
2022-10-04T09:47:05.558Z,45.75
2022-10-04T09:48:05.513Z,47.65
2022-10-04T09:49:05.530Z,46.70
2022-10-04T09:50:05.480Z,46.03
2022-10-04T09:51:05.487Z,46.23
2022-10-04T09:52:05.516Z,48.35
2022-10-04T09:53:05.462Z,48.29
2022-10-04T09:54:05.439Z,49.02
2022-10-04T09:55:05.439Z,48.27
2022-10-04T09:56:05.417Z,48.22
2022-10-04T09:57:05.431Z,46.20
2022-10-04T09:58:05.385Z,47.22
2022-10-04T09:59:05.345Z,46.91
2022-10-04T10:00:05.348Z,46.66
2022-10-04T10:01:05.343Z,46.04
2022-10-04T10:02:05.369Z,45.74
2022-10-04T10:03:05.393Z,45.96
2022-10-04T10:04:05.275Z,46.58
2022-10-04T10:05:05.279Z,46.98
2022-10-04T10:06:05.259Z,46.46
2022-10-04T10:07:05.288Z,45.94
2022-10-04T10:08:05.233Z,45.72
2022-10-04T10:09:05.234Z,45.92
2022-10-04T10:10:05.182Z,45.65
2022-10-04T10:11:05.174Z,43.74
2022-10-04T10:12:05.200Z,43.72
2022-10-04T10:13:05.125Z,43.42
2022-10-04T10:14:06.133Z,43.02
2022-10-04T10:15:05.125Z,43.01
2022-10-04T10:16:05.208Z,42.80
2022-10-04T10:17:05.100Z,42.58
2022-10-04T10:18:05.060Z,42.66
2022-10-04T10:19:05.066Z,40.58
2022-10-04T10:20:05.067Z,42.17
2022-10-04T10:21:05.025Z,42.27
2022-10-04T10:22:05.044Z,43.66
2022-10-04T10:23:05.013Z,41.58
2022-10-04T10:24:04.979Z,42.61
2022-10-04T10:25:04.953Z,43.74
2022-10-04T10:26:04.947Z,44.14
2022-10-04T10:27:04.960Z,43.57
2022-10-04T10:28:04.958Z,43.64
2022-10-04T10:29:04.902Z,42.72
2022-10-04T10:30:04.881Z,43.90
2022-10-04T10:31:04.875Z,42.79
2022-10-04T10:32:05.900Z,42.86
2022-10-04T10:33:04.840Z,43.40
2022-10-04T10:34:04.837Z,44.10
2022-10-04T10:35:04.881Z,43.68
2022-10-04T10:36:04.783Z,42.99
2022-10-04T10:37:04.799Z,43.32
2022-10-04T10:38:05.027Z,44.22
2022-10-04T10:39:04.747Z,45.53
2022-10-04T10:40:04.714Z,43.42
2022-10-04T10:41:04.697Z,43.92
2022-10-04T10:42:04.710Z,43.74
2022-10-04T10:43:04.662Z,43.74
2022-10-04T10:44:04.654Z,44.93
2022-10-04T10:45:04.644Z,43.82
2022-10-04T10:46:04.696Z,43.92
2022-10-04T10:47:04.641Z,43.86
2022-10-04T10:48:04.598Z,44.36
2022-10-04T10:49:04.579Z,45.20
2022-10-04T10:50:04.571Z,46.30
2022-10-04T10:51:04.546Z,45.42
2022-10-04T10:52:04.589Z,46.64
2022-10-04T10:53:04.526Z,47.53
2022-10-04T10:54:04.495Z,46.94
2022-10-04T10:55:04.487Z,45.86
2022-10-04T10:56:04.478Z,48.90
2022-10-04T10:57:04.548Z,47.86
2022-10-04T10:58:04.455Z,48.16
2022-10-04T10:59:04.426Z,47.83
2022-10-04T11:00:04.407Z,48.08
2022-10-04T11:01:04.406Z,48.58
2022-10-04T11:02:04.592Z,47.75
2022-10-04T11:03:13.222Z,48.85
2022-10-04T11:04:06.377Z,49.35
2022-10-04T11:05:04.324Z,49.00
2022-10-04T11:06:04.310Z,50.84
2022-10-04T11:07:04.351Z,52.29
2022-10-04T11:08:04.266Z,52.92
2022-10-04T11:09:04.276Z,53.97
2022-10-04T11:10:04.275Z,55.52
2022-10-04T11:11:04.241Z,55.65
2022-10-04T11:12:04.254Z,56.98
2022-10-04T11:13:04.208Z,56.98
2022-10-04T11:14:04.205Z,56.98
2022-10-04T11:15:04.165Z,58.22
2022-10-04T11:16:04.230Z,57.54
2022-10-04T11:17:04.167Z,58.50
2022-10-04T11:18:04.136Z,59.80
2022-10-04T11:19:04.114Z,59.41
2022-10-04T11:20:04.098Z,59.80
2022-10-04T11:21:04.083Z,59.91
2022-10-04T11:22:04.092Z,59.63
2022-10-04T11:23:04.063Z,60.36
2022-10-04T11:24:04.022Z,60.87
2022-10-04T11:25:04.027Z,60.80
2022-10-04T11:26:03.994Z,61.20
2022-10-04T11:27:04.022Z,61.23
2022-10-04T11:28:04.014Z,61.90
2022-10-04T11:29:03.948Z,62.01
2022-10-04T11:30:03.947Z,61.33
2022-10-04T11:31:03.977Z,61.33
2022-10-04T11:32:03.959Z,61.16
2022-10-04T11:33:03.864Z,62.60
2022-10-04T11:34:04.870Z,62.29
2022-10-04T11:35:03.849Z,62.70
2022-10-04T11:36:03.844Z,62.40
2022-10-04T11:37:03.859Z,62.80
2022-10-04T11:38:03.809Z,62.19
2022-10-04T11:39:03.807Z,62.70
2022-10-04T11:40:03.822Z,62.49
2022-10-04T11:41:03.781Z,61.99
2022-10-04T11:42:03.781Z,62.70
2022-10-04T11:43:03.728Z,62.70
2022-10-04T11:44:03.704Z,61.99
2022-10-04T11:45:03.775Z,62.29
2022-10-04T11:46:07.256Z,62.70
2022-10-04T11:47:04.723Z,60.68
2022-10-04T11:48:03.664Z,61.11
2022-10-04T11:49:03.617Z,62.29
2022-10-04T11:50:03.589Z,61.41
2022-10-04T11:51:03.579Z,61.61
2022-10-04T11:52:03.586Z,60.71
2022-10-04T11:53:03.552Z,61.01
2022-10-04T11:54:03.561Z,60.44
2022-10-04T11:55:03.513Z,61.55
2022-10-04T11:56:03.501Z,60.97
2022-10-04T11:57:03.510Z,60.16
2022-10-04T11:58:03.459Z,61.07
2022-10-04T11:59:03.443Z,61.37
2022-10-04T12:00:03.419Z,60.97
2022-10-04T12:01:03.416Z,62.38
2022-10-04T12:02:03.409Z,61.35
2022-10-04T12:03:03.378Z,60.53
2022-10-04T12:04:03.401Z,61.27
2022-10-04T12:05:03.334Z,61.57
2022-10-04T12:06:03.323Z,62.38
2022-10-04T12:07:03.346Z,62.51
2022-10-04T12:08:03.290Z,62.68
2022-10-04T12:09:03.262Z,62.28
2022-10-04T12:10:03.252Z,62.59
2022-10-04T12:11:03.219Z,61.98
2022-10-04T12:12:04.245Z,62.79
2022-10-04T12:13:03.220Z,63.22
2022-10-04T12:14:03.200Z,62.59
2022-10-04T12:15:03.162Z,64.23
2022-10-04T12:16:03.180Z,63.42
2022-10-04T12:17:03.163Z,64.03
2022-10-04T12:18:03.117Z,62.95
2022-10-04T12:19:03.102Z,64.16
2022-10-04T12:20:03.080Z,64.56
2022-10-04T12:21:03.089Z,62.01
2022-10-04T12:22:03.083Z,62.51
2022-10-04T12:23:03.033Z,62.71
2022-10-04T12:24:03.005Z,62.71
2022-10-04T12:25:03.013Z,63.15
2022-10-04T12:26:03.003Z,63.76
2022-10-04T12:27:02.990Z,64.26
2022-10-04T12:28:02.978Z,64.06
2022-10-04T12:29:02.961Z,64.26
2022-10-04T12:30:02.924Z,64.56
2022-10-04T12:31:02.903Z,64.94
2022-10-04T12:32:02.949Z,63.52
2022-10-04T12:33:02.890Z,63.45
2022-10-04T12:34:02.881Z,63.96
2022-10-04T12:35:02.830Z,64.26
2022-10-04T12:36:02.828Z,63.65
2022-10-04T12:37:02.827Z,63.38
2022-10-04T12:38:02.783Z,64.46
2022-10-04T12:39:02.752Z,64.59
2022-10-04T12:40:02.755Z,64.36
2022-10-04T12:41:02.748Z,64.97
2022-10-04T12:42:02.756Z,64.87
2022-10-04T12:43:02.707Z,65.57
2022-10-04T12:44:02.675Z,64.87
2022-10-04T12:45:02.669Z,64.26
2022-10-04T12:46:02.730Z,64.56
2022-10-04T12:47:02.653Z,64.56
2022-10-04T12:48:02.627Z,64.36
2022-10-04T12:49:02.602Z,64.59
2022-10-04T12:50:02.597Z,64.59
2022-10-04T12:51:02.559Z,65.57
2022-10-04T12:52:02.584Z,65.47